sensor_id;sensor_type;location;lat;lon;timestamp;pressure;altitude;pressure_sealevel;temperature;humidity
21520;BME280;10921;53.614;9.882;2022-08-25T00:01:32;101863.00;;;21.29;78.26
21520;BME280;10921;53.614;9.882;2022-08-25T00:04:01;101860.28;;;21.29;78.12
21520;BME280;10921;53.614;9.882;2022-08-25T00:06:29;101858.59;;;21.28;78.42
21520;BME280;10921;53.614;9.882;2022-08-25T00:08:55;101841.06;;;21.16;78.05
21520;BME280;10921;53.614;9.882;2022-08-25T00:11:27;101857.56;;;21.29;78.73
21520;BME280;10921;53.614;9.882;2022-08-25T00:13:57;101855.03;;;21.28;78.88
21520;BME280;10921;53.614;9.882;2022-08-25T00:16:26;101851.66;;;21.26;78.44
21520;BME280;10921;53.614;9.882;2022-08-25T00:18:56;101852.06;;;21.23;78.58
21520;BME280;10921;53.614;9.882;2022-08-25T00:21:24;101860.19;;;21.37;75.85
21520;BME280;10921;53.614;9.882;2022-08-25T00:23:51;101850.63;;;21.27;78.19
21520;BME280;10921;53.614;9.882;2022-08-25T00:26:18;101850.19;;;21.23;78.67
21520;BME280;10921;53.614;9.882;2022-08-25T00:28:46;101859.38;;;21.22;78.98
21520;BME280;10921;53.614;9.882;2022-08-25T00:31:18;101852.06;;;21.23;79.44
21520;BME280;10921;53.614;9.882;2022-08-25T00:33:46;101842.56;;;21.19;79.23
21520;BME280;10921;53.614;9.882;2022-08-25T00:36:15;101851.41;;;21.21;79.17
21520;BME280;10921;53.614;9.882;2022-08-25T00:38:43;101852.56;;;21.18;79.29
21520;BME280;10921;53.614;9.882;2022-08-25T00:41:14;101850.56;;;21.20;80.10
21520;BME280;10921;53.614;9.882;2022-08-25T00:46:08;101863.81;;;21.15;78.98
21520;BME280;10921;53.614;9.882;2022-08-25T00:48:35;101865.00;;;21.13;79.16
21520;BME280;10921;53.614;9.882;2022-08-25T00:51:06;101853.31;;;21.12;79.82
21520;BME280;10921;53.614;9.882;2022-08-25T00:53:35;101856.59;;;21.08;79.83
21520;BME280;10921;53.614;9.882;2022-08-25T00:56:02;101856.78;;;21.06;80.12
21520;BME280;10921;53.614;9.882;2022-08-25T00:58:31;101859.88;;;21.03;80.36
21520;BME280;10921;53.614;9.882;2022-08-25T01:00:59;101848.72;;;20.98;80.36
21520;BME280;10921;53.614;9.882;2022-08-25T01:03:29;101871.28;;;20.98;80.83
21520;BME280;10921;53.614;9.882;2022-08-25T01:06:02;101868.47;;;20.92;80.41
21520;BME280;10921;53.614;9.882;2022-08-25T01:08:30;101862.56;;;20.88;80.79
21520;BME280;10921;53.614;9.882;2022-08-25T01:11:01;101862.94;;;20.85;81.57
21520;BME280;10921;53.614;9.882;2022-08-25T01:13:33;101860.56;;;20.82;81.27
21520;BME280;10921;53.614;9.882;2022-08-25T01:16:00;101864.50;;;20.80;81.70
21520;BME280;10921;53.614;9.882;2022-08-25T01:18:28;101854.56;;;20.72;82.32
21520;BME280;10921;53.614;9.882;2022-08-25T01:21:07;101857.94;;;20.74;82.19
21520;BME280;10921;53.614;9.882;2022-08-25T01:23:33;101860.19;;;20.70;81.98
21520;BME280;10921;53.614;9.882;2022-08-25T01:26:07;101858.00;;;20.66;82.37
21520;BME280;10921;53.614;9.882;2022-08-25T01:28:36;101869.03;;;20.64;82.13
21520;BME280;10921;53.614;9.882;2022-08-25T01:31:03;101849.13;;;20.57;82.03
21520;BME280;10921;53.614;9.882;2022-08-25T01:33:49;101859.13;;;20.57;82.23
21520;BME280;10921;53.614;9.882;2022-08-25T01:36:19;101852.72;;;20.50;82.81
21520;BME280;10921;53.614;9.882;2022-08-25T01:38:46;101852.63;;;20.43;82.11
21520;BME280;10921;53.614;9.882;2022-08-25T01:41:16;101858.53;;;20.47;82.95
21520;BME280;10921;53.614;9.882;2022-08-25T01:43:46;101864.50;;;20.42;82.71
21520;BME280;10921;53.614;9.882;2022-08-25T01:46:13;101861.28;;;20.39;83.25
21520;BME280;10921;53.614;9.882;2022-08-25T01:48:40;101857.22;;;20.34;84.07
21520;BME280;10921;53.614;9.882;2022-08-25T01:51:06;101863.03;;;20.31;83.54
21520;BME280;10921;53.614;9.882;2022-08-25T01:53:33;101868.31;;;20.25;84.36
21520;BME280;10921;53.614;9.882;2022-08-25T01:56:07;101871.03;;;20.25;84.68
21520;BME280;10921;53.614;9.882;2022-08-25T01:58:37;101875.78;;;20.23;84.74
21520;BME280;10921;53.614;9.882;2022-08-25T02:01:08;101869.88;;;20.19;85.02
21520;BME280;10921;53.614;9.882;2022-08-25T02:03:37;101848.28;;;20.03;85.23
21520;BME280;10921;53.614;9.882;2022-08-25T02:06:07;101880.59;;;20.13;85.27
21520;BME280;10921;53.614;9.882;2022-08-25T02:08:36;101873.84;;;20.09;85.51
21520;BME280;10921;53.614;9.882;2022-08-25T02:11:03;101876.06;;;20.05;84.79
21520;BME280;10921;53.614;9.882;2022-08-25T02:13:30;101877.25;;;20.02;85.60
21520;BME280;10921;53.614;9.882;2022-08-25T02:15:59;101868.00;;;19.97;85.35
21520;BME280;10921;53.614;9.882;2022-08-25T02:18:26;101878.66;;;19.98;85.96
21520;BME280;10921;53.614;9.882;2022-08-25T02:20:53;101874.28;;;19.89;85.80
21520;BME280;10921;53.614;9.882;2022-08-25T02:23:19;101875.63;;;19.93;86.06
21520;BME280;10921;53.614;9.882;2022-08-25T02:25:46;101870.38;;;19.92;86.37
21520;BME280;10921;53.614;9.882;2022-08-25T02:28:13;101869.03;;;19.88;86.73
21520;BME280;10921;53.614;9.882;2022-08-25T02:30:41;101872.41;;;19.90;87.02
21520;BME280;10921;53.614;9.882;2022-08-25T02:33:08;101870.72;;;19.89;86.84
21520;BME280;10921;53.614;9.882;2022-08-25T02:35:35;101861.94;;;19.87;86.80
21520;BME280;10921;53.614;9.882;2022-08-25T02:38:02;101869.41;;;19.85;86.89
21520;BME280;10921;53.614;9.882;2022-08-25T02:40:29;101862.31;;;19.84;86.81
21520;BME280;10921;53.614;9.882;2022-08-25T02:42:56;101866.38;;;19.80;86.82
21520;BME280;10921;53.614;9.882;2022-08-25T02:45:22;101867.22;;;19.80;86.97
21520;BME280;10921;53.614;9.882;2022-08-25T02:47:49;101859.28;;;19.79;86.99
21520;BME280;10921;53.614;9.882;2022-08-25T02:50:15;101849.31;;;19.71;87.33
21520;BME280;10921;53.614;9.882;2022-08-25T02:52:42;101859.63;;;19.76;87.44
21520;BME280;10921;53.614;9.882;2022-08-25T02:55:10;101855.41;;;19.73;87.72
21520;BME280;10921;53.614;9.882;2022-08-25T02:57:40;101855.78;;;19.70;87.68
21520;BME280;10921;53.614;9.882;2022-08-25T03:00:08;101866.63;;;19.70;87.78
21520;BME280;10921;53.614;9.882;2022-08-25T03:02:38;101863.41;;;19.66;87.64
21520;BME280;10921;53.614;9.882;2022-08-25T03:05:07;101866.97;;;19.67;87.54
21520;BME280;10921;53.614;9.882;2022-08-25T03:07:35;101856.66;;;19.62;87.66
21520;BME280;10921;53.614;9.882;2022-08-25T03:10:12;101857.50;;;19.63;88.16
21520;BME280;10921;53.614;9.882;2022-08-25T03:12:40;101852.25;;;19.61;88.26
21520;BME280;10921;53.614;9.882;2022-08-25T03:15:11;101861.91;;;19.56;87.94
21520;BME280;10921;53.614;9.882;2022-08-25T03:17:39;101847.72;;;19.46;88.16
21520;BME280;10921;53.614;9.882;2022-08-25T03:20:06;101855.00;;;19.53;88.49
21520;BME280;10921;53.614;9.882;2022-08-25T03:22:33;101861.44;;;19.52;88.77
21520;BME280;10921;53.614;9.882;2022-08-25T03:25:00;101865.16;;;19.51;88.57
21520;BME280;10921;53.614;9.882;2022-08-25T03:27:50;101853.50;;;19.51;88.54
21520;BME280;10921;53.614;9.882;2022-08-25T03:30:17;101861.94;;;19.48;88.52
21520;BME280;10921;53.614;9.882;2022-08-25T03:32:44;101854.31;;;19.43;88.83
21520;BME280;10921;53.614;9.882;2022-08-25T03:35:11;101855.16;;;19.44;88.98
21520;BME280;10921;53.614;9.882;2022-08-25T03:37:38;101845.53;;;19.41;89.24
21520;BME280;10921;53.614;9.882;2022-08-25T03:40:07;101845.06;;;19.38;89.27
21520;BME280;10921;53.614;9.882;2022-08-25T03:42:44;101837.09;;;19.36;89.22
21520;BME280;10921;53.614;9.882;2022-08-25T03:45:12;101838.97;;;19.36;89.25
21520;BME280;10921;53.614;9.882;2022-08-25T03:47:41;101841.47;;;19.45;87.71
21520;BME280;10921;53.614;9.882;2022-08-25T03:50:09;101834.91;;;19.31;88.98
21520;BME280;10921;53.614;9.882;2022-08-25T03:52:36;101836.94;;;19.29;89.06
21520;BME280;10921;53.614;9.882;2022-08-25T03:55:10;101839.81;;;19.28;89.74
21520;BME280;10921;53.614;9.882;2022-08-25T03:57:37;101840.00;;;19.26;89.68
21520;BME280;10921;53.614;9.882;2022-08-25T04:00:06;101844.75;;;19.24;90.00
21520;BME280;10921;53.614;9.882;2022-08-25T04:02:33;101845.94;;;19.22;89.77
21520;BME280;10921;53.614;9.882;2022-08-25T04:04:59;101837.16;;;19.20;90.07
21520;BME280;10921;53.614;9.882;2022-08-25T04:07:27;101852.56;;;19.19;90.68
21520;BME280;10921;53.614;9.882;2022-08-25T04:09:54;101843.41;;;19.20;90.96
21520;BME280;10921;53.614;9.882;2022-08-25T04:12:21;101835.47;;;19.19;91.16
21520;BME280;10921;53.614;9.882;2022-08-25T04:14:48;101834.63;;;19.18;91.17
21520;BME280;10921;53.614;9.882;2022-08-25T04:17:15;101824.84;;;19.09;91.34
21520;BME280;10921;53.614;9.882;2022-08-25T04:19:43;101837.34;;;19.18;91.64
21520;BME280;10921;53.614;9.882;2022-08-25T04:22:09;101842.91;;;19.17;91.11
21520;BME280;10921;53.614;9.882;2022-08-25T04:24:38;101848.16;;;19.18;91.29
21520;BME280;10921;53.614;9.882;2022-08-25T04:27:05;101820.13;;;19.03;91.29
21520;BME280;10921;53.614;9.882;2022-08-25T04:29:32;101843.09;;;19.15;91.28
21520;BME280;10921;53.614;9.882;2022-08-25T04:31:59;101843.75;;;19.17;92.14
21520;BME280;10921;53.614;9.882;2022-08-25T04:34:26;101845.97;;;19.14;92.14
21520;BME280;10921;53.614;9.882;2022-08-25T04:36:57;101863.38;;;19.19;91.98
21520;BME280;10921;53.614;9.882;2022-08-25T04:39:24;101858.81;;;19.20;92.69
21520;BME280;10921;53.614;9.882;2022-08-25T04:41:50;101856.44;;;19.17;91.99
21520;BME280;10921;53.614;9.882;2022-08-25T04:44:17;101867.78;;;19.20;92.04
21520;BME280;10921;53.614;9.882;2022-08-25T04:46:44;101862.19;;;19.22;92.13
21520;BME280;10921;53.614;9.882;2022-08-25T04:49:10;101865.06;;;19.20;91.76
21520;BME280;10921;53.614;9.882;2022-08-25T04:51:39;101870.97;;;19.24;92.05
21520;BME280;10921;53.614;9.882;2022-08-25T04:54:10;101840.88;;;19.11;92.17
21520;BME280;10921;53.614;9.882;2022-08-25T04:56:39;101863.34;;;19.27;92.24
21520;BME280;10921;53.614;9.882;2022-08-25T04:59:11;101859.63;;;19.28;92.35
21520;BME280;10921;53.614;9.882;2022-08-25T05:01:39;101864.00;;;19.29;92.34
21520;BME280;10921;53.614;9.882;2022-08-25T05:04:09;101867.06;;;19.35;92.23
21520;BME280;10921;53.614;9.882;2022-08-25T05:06:54;101830.91;;;19.19;92.55
21520;BME280;10921;53.614;9.882;2022-08-25T05:09:20;101858.59;;;19.38;92.35
21520;BME280;10921;53.614;9.882;2022-08-25T05:11:47;101849.25;;;19.40;92.61
21520;BME280;10921;53.614;9.882;2022-08-25T05:14:14;101853.66;;;19.41;92.90
21520;BME280;10921;53.614;9.882;2022-08-25T05:16:43;101834.22;;;19.38;92.65
21520;BME280;10921;53.614;9.882;2022-08-25T05:19:10;101837.06;;;19.44;92.65
21520;BME280;10921;53.614;9.882;2022-08-25T05:21:37;101842.66;;;19.51;93.05
21520;BME280;10921;53.614;9.882;2022-08-25T05:24:03;101825.41;;;19.52;92.96
21520;BME280;10921;53.614;9.882;2022-08-25T05:26:31;101828.41;;;19.57;93.11
21520;BME280;10921;53.614;9.882;2022-08-25T05:28:59;101834.31;;;19.60;93.24
21520;BME280;10921;53.614;9.882;2022-08-25T05:31:27;101832.09;;;19.64;93.13
21520;BME280;10921;53.614;9.882;2022-08-25T05:33:54;101828.03;;;19.68;93.16
21520;BME280;10921;53.614;9.882;2022-08-25T05:36:22;101816.34;;;19.67;93.38
21520;BME280;10921;53.614;9.882;2022-08-25T05:38:49;101801.47;;;19.63;93.30
21520;BME280;10921;53.614;9.882;2022-08-25T05:41:18;101832.69;;;19.82;93.52
21520;BME280;10921;53.614;9.882;2022-08-25T05:43:46;101831.97;;;19.88;93.47
21520;BME280;10921;53.614;9.882;2022-08-25T05:46:16;101841.75;;;19.97;93.21
21520;BME280;10921;53.614;9.882;2022-08-25T05:48:44;101836.06;;;20.07;93.06
21520;BME280;10921;53.614;9.882;2022-08-25T05:51:12;101843.16;;;20.16;92.78
21520;BME280;10921;53.614;9.882;2022-08-25T05:53:42;101836.97;;;20.22;92.77
21520;BME280;10921;53.614;9.882;2022-08-25T05:56:09;101835.06;;;20.31;92.42
21520;BME280;10921;53.614;9.882;2022-08-25T05:58:37;101838.75;;;20.38;91.40
21520;BME280;10921;53.614;9.882;2022-08-25T06:01:04;101840.75;;;20.44;91.56
21520;BME280;10921;53.614;9.882;2022-08-25T06:03:49;101837.13;;;20.52;90.78
21520;BME280;10921;53.614;9.882;2022-08-25T06:06:21;101824.22;;;20.54;90.50
21520;BME280;10921;53.614;9.882;2022-08-25T06:08:48;101823.13;;;20.63;90.03
21520;BME280;10921;53.614;9.882;2022-08-25T06:11:14;101841.19;;;20.70;89.33
21520;BME280;10921;53.614;9.882;2022-08-25T06:13:41;101838.97;;;20.74;89.44
21520;BME280;10921;53.614;9.882;2022-08-25T06:16:08;101838.22;;;20.80;88.64
21520;BME280;10921;53.614;9.882;2022-08-25T06:18:35;101838.69;;;20.84;88.78
21520;BME280;10921;53.614;9.882;2022-08-25T06:21:09;101825.91;;;20.92;88.95
21520;BME280;10921;53.614;9.882;2022-08-25T06:23:36;101824.47;;;20.96;87.67
21520;BME280;10921;53.614;9.882;2022-08-25T06:26:03;101830.03;;;21.03;86.78
21520;BME280;10921;53.614;9.882;2022-08-25T06:28:30;101831.97;;;21.09;86.86
21520;BME280;10921;53.614;9.882;2022-08-25T06:31:00;101825.63;;;21.17;86.69
21520;BME280;10921;53.614;9.882;2022-08-25T06:33:27;101822.56;;;21.20;86.47
21520;BME280;10921;53.614;9.882;2022-08-25T06:35:55;101831.91;;;21.32;85.93
21520;BME280;10921;53.614;9.882;2022-08-25T06:38:22;101841.09;;;21.46;85.54
21520;BME280;10921;53.614;9.882;2022-08-25T06:40:50;101832.63;;;21.55;84.59
21520;BME280;10921;53.614;9.882;2022-08-25T06:43:20;101828.59;;;21.66;83.71
21520;BME280;10921;53.614;9.882;2022-08-25T06:45:47;101834.38;;;21.77;83.39
21520;BME280;10921;53.614;9.882;2022-08-25T06:48:14;101833.41;;;21.85;81.99
21520;BME280;10921;53.614;9.882;2022-08-25T06:50:41;101838.84;;;22.00;82.08
21520;BME280;10921;53.614;9.882;2022-08-25T06:53:08;101838.53;;;22.09;81.76
21520;BME280;10921;53.614;9.882;2022-08-25T06:55:35;101833.81;;;22.18;80.73
21520;BME280;10921;53.614;9.882;2022-08-25T06:58:02;101835.19;;;22.29;80.49
21520;BME280;10921;53.614;9.882;2022-08-25T07:00:31;101838.22;;;22.40;79.73
21520;BME280;10921;53.614;9.882;2022-08-25T07:02:58;101843.97;;;22.52;80.64
21520;BME280;10921;53.614;9.882;2022-08-25T07:05:27;101843.84;;;22.60;79.10
21520;BME280;10921;53.614;9.882;2022-08-25T07:08:08;101856.50;;;22.74;79.09
21520;BME280;10921;53.614;9.882;2022-08-25T07:10:37;101863.72;;;22.82;77.96
21520;BME280;10921;53.614;9.882;2022-08-25T07:13:03;101854.56;;;22.90;76.78
21520;BME280;10921;53.614;9.882;2022-08-25T07:15:30;101842.19;;;22.87;76.45
21520;BME280;10921;53.614;9.882;2022-08-25T07:17:56;101867.47;;;23.09;76.65
21520;BME280;10921;53.614;9.882;2022-08-25T07:20:23;101861.63;;;23.12;76.02
21520;BME280;10921;53.614;9.882;2022-08-25T07:22:50;101862.53;;;23.26;76.12
21520;BME280;10921;53.614;9.882;2022-08-25T07:25:18;101866.59;;;23.36;75.88
21520;BME280;10921;53.614;9.882;2022-08-25T07:27:44;101862.59;;;23.39;74.44
21520;BME280;10921;53.614;9.882;2022-08-25T07:30:11;101858.31;;;23.51;74.72
21520;BME280;10921;53.614;9.882;2022-08-25T07:32:37;101848.09;;;23.60;73.89
21520;BME280;10921;53.614;9.882;2022-08-25T07:35:08;101844.38;;;23.67;73.30
21520;BME280;10921;53.614;9.882;2022-08-25T07:37:49;101855.50;;;23.79;73.58
21520;BME280;10921;53.614;9.882;2022-08-25T07:40:21;101840.00;;;23.79;72.76
21520;BME280;10921;53.614;9.882;2022-08-25T07:42:50;101848.44;;;23.98;72.54
21520;BME280;10921;53.614;9.882;2022-08-25T07:45:18;101851.59;;;24.08;72.02
21520;BME280;10921;53.614;9.882;2022-08-25T07:47:46;101852.88;;;24.18;70.97
21520;BME280;10921;53.614;9.882;2022-08-25T07:50:12;101850.84;;;24.27;70.72
21520;BME280;10921;53.614;9.882;2022-08-25T07:52:40;101859.44;;;24.37;70.44
21520;BME280;10921;53.614;9.882;2022-08-25T07:55:07;101838.03;;;24.34;69.66
21520;BME280;10921;53.614;9.882;2022-08-25T07:57:38;101857.59;;;24.58;70.17
21520;BME280;10921;53.614;9.882;2022-08-25T08:00:06;101855.06;;;24.63;69.28
21520;BME280;10921;53.614;9.882;2022-08-25T08:02:37;101857.19;;;24.74;68.30
21520;BME280;10921;53.614;9.882;2022-08-25T08:05:05;101846.44;;;24.85;68.39
21520;BME280;10921;53.614;9.882;2022-08-25T08:07:35;101849.13;;;25.25;68.96
21520;BME280;10921;53.614;9.882;2022-08-25T08:10:11;101844.34;;;25.07;66.87
21520;BME280;10921;53.614;9.882;2022-08-25T08:12:58;101855.47;;;25.19;66.28
21520;BME280;10921;53.614;9.882;2022-08-25T08:15:26;101849.16;;;25.18;65.51
21520;BME280;10921;53.614;9.882;2022-08-25T08:17:55;101854.81;;;25.23;65.48
21520;BME280;10921;53.614;9.882;2022-08-25T08:20:23;101845.34;;;25.26;65.85
21520;BME280;10921;53.614;9.882;2022-08-25T08:22:49;101849.78;;;25.20;66.01
21520;BME280;10921;53.614;9.882;2022-08-25T08:25:16;101844.72;;;25.24;65.75
21520;BME280;10921;53.614;9.882;2022-08-25T08:27:46;101851.03;;;25.31;65.49
21520;BME280;10921;53.614;9.882;2022-08-25T08:30:14;101856.22;;;25.39;65.00
21520;BME280;10921;53.614;9.882;2022-08-25T08:32:40;101853.50;;;25.39;64.41
21520;BME280;10921;53.614;9.882;2022-08-25T08:35:27;101856.00;;;25.47;64.71
21520;BME280;10921;53.614;9.882;2022-08-25T08:37:53;101854.28;;;25.53;64.05
21520;BME280;10921;53.614;9.882;2022-08-25T08:40:20;101860.19;;;25.56;64.49
21520;BME280;10921;53.614;9.882;2022-08-25T08:42:54;101863.31;;;25.67;64.68
21520;BME280;10921;53.614;9.882;2022-08-25T08:45:54;101864.28;;;25.85;64.47
21520;BME280;10921;53.614;9.882;2022-08-25T08:48:54;101858.81;;;25.85;64.49
21520;BME280;10921;53.614;9.882;2022-08-25T08:51:31;101849.13;;;25.89;63.45
21520;BME280;10921;53.614;9.882;2022-08-25T08:54:18;101840.66;;;25.98;63.18
21520;BME280;10921;53.614;9.882;2022-08-25T08:57:01;101838.16;;;25.96;62.47
21520;BME280;10921;53.614;9.882;2022-08-25T08:59:37;101845.66;;;26.07;62.83
21520;BME280;10921;53.614;9.882;2022-08-25T09:02:14;101836.63;;;26.07;62.48
21520;BME280;10921;53.614;9.882;2022-08-25T09:05:04;101843.13;;;26.12;62.36
21520;BME280;10921;53.614;9.882;2022-08-25T09:07:41;101838.44;;;26.13;62.61
21520;BME280;10921;53.614;9.882;2022-08-25T09:10:14;101842.22;;;26.18;62.88
21520;BME280;10921;53.614;9.882;2022-08-25T09:16:03;101841.53;;;26.30;62.01
21520;BME280;10921;53.614;9.882;2022-08-25T09:24:46;101842.53;;;26.42;61.43
21520;BME280;10921;53.614;9.882;2022-08-25T09:30:03;101841.13;;;26.57;61.33
21520;BME280;10921;53.614;9.882;2022-08-25T09:32:38;101836.66;;;26.63;61.46
21520;BME280;10921;53.614;9.882;2022-08-25T09:35:06;101836.16;;;26.73;60.50
21520;BME280;10921;53.614;9.882;2022-08-25T09:37:35;101799.38;;;26.62;59.60
21520;BME280;10921;53.614;9.882;2022-08-25T09:40:02;101829.94;;;26.84;59.15
21520;BME280;10921;53.614;9.882;2022-08-25T09:42:47;101846.97;;;27.11;59.78
21520;BME280;10921;53.614;9.882;2022-08-25T09:45:15;101836.22;;;27.09;58.60
21520;BME280;10921;53.614;9.882;2022-08-25T09:47:44;101822.13;;;27.06;58.48
21520;BME280;10921;53.614;9.882;2022-08-25T09:50:16;101811.97;;;27.31;58.75
21520;BME280;10921;53.614;9.882;2022-08-25T09:52:45;101822.00;;;27.55;57.78
21520;BME280;10921;53.614;9.882;2022-08-25T09:55:25;101809.13;;;27.74;56.29
21520;BME280;10921;53.614;9.882;2022-08-25T09:57:55;101819.03;;;28.05;56.02
21520;BME280;10921;53.614;9.882;2022-08-25T10:00:30;101809.47;;;28.38;56.09
21520;BME280;10921;53.614;9.882;2022-08-25T10:05:37;101784.22;;;28.82;54.09
21520;BME280;10921;53.614;9.882;2022-08-25T10:08:31;101775.66;;;29.19;53.80
21520;BME280;10921;53.614;9.882;2022-08-25T10:11:06;101795.47;;;29.44;52.88
21520;BME280;10921;53.614;9.882;2022-08-25T10:13:40;101785.56;;;29.71;52.68
21520;BME280;10921;53.614;9.882;2022-08-25T10:16:34;101780.41;;;30.03;50.79
21520;BME280;10921;53.614;9.882;2022-08-25T10:19:21;101778.25;;;30.39;51.39
21520;BME280;10921;53.614;9.882;2022-08-25T10:22:04;101780.09;;;30.67;50.57
21520;BME280;10921;53.614;9.882;2022-08-25T10:24:32;101770.88;;;30.78;49.10
21520;BME280;10921;53.614;9.882;2022-08-25T10:32:52;101766.44;;;31.59;46.77
21520;BME280;10921;53.614;9.882;2022-08-25T10:35:26;101771.31;;;31.74;46.72
21520;BME280;10921;53.614;9.882;2022-08-25T10:40:40;101673.72;;;31.85;46.35
21520;BME280;10921;53.614;9.882;2022-08-25T10:49:17;101739.69;;;32.56;45.39
21520;BME280;10921;53.614;9.882;2022-08-25T10:54:25;101728.50;;;32.72;43.93
21520;BME280;10921;53.614;9.882;2022-08-25T10:57:33;101733.31;;;32.92;44.75
21520;BME280;10921;53.614;9.882;2022-08-25T11:00:09;101713.69;;;32.94;43.29
21520;BME280;10921;53.614;9.882;2022-08-25T11:13:57;101697.34;;;33.95;41.42
21520;BME280;10921;53.614;9.882;2022-08-25T11:16:52;101671.59;;;34.10;41.69
21520;BME280;10921;53.614;9.882;2022-08-25T11:27:22;101665.50;;;35.13;39.22
21520;BME280;10921;53.614;9.882;2022-08-25T11:30:12;101654.53;;;35.37;38.41
21520;BME280;10921;53.614;9.882;2022-08-25T11:32:43;101676.59;;;35.57;36.41
21520;BME280;10921;53.614;9.882;2022-08-25T11:35:15;101671.50;;;35.30;36.16
21520;BME280;10921;53.614;9.882;2022-08-25T11:38:03;101646.00;;;35.23;37.79
21520;BME280;10921;53.614;9.882;2022-08-25T11:45:55;101677.38;;;34.49;38.66
21520;BME280;10921;53.614;9.882;2022-08-25T11:48:38;101667.69;;;34.26;38.12
21520;BME280;10921;53.614;9.882;2022-08-25T11:51:09;101668.81;;;34.10;39.33
21520;BME280;10921;53.614;9.882;2022-08-25T11:53:40;101657.19;;;34.08;38.62
21520;BME280;10921;53.614;9.882;2022-08-25T11:56:30;101654.94;;;34.40;39.87
21520;BME280;10921;53.614;9.882;2022-08-25T11:58:58;101591.56;;;34.08;38.11
21520;BME280;10921;53.614;9.882;2022-08-25T12:04:33;101642.94;;;34.80;38.51
21520;BME280;10921;53.614;9.882;2022-08-25T12:07:19;101643.72;;;34.86;38.08
21520;BME280;10921;53.614;9.882;2022-08-25T12:15:22;101633.81;;;35.19;35.25
21520;BME280;10921;53.614;9.882;2022-08-25T12:26:37;101627.44;;;35.18;35.57
21520;BME280;10921;53.614;9.882;2022-08-25T12:29:23;101578.28;;;34.85;35.75
21520;BME280;10921;53.614;9.882;2022-08-25T12:37:17;101603.41;;;35.04;35.45
21520;BME280;10921;53.614;9.882;2022-08-25T12:42:36;101601.34;;;35.24;36.31
21520;BME280;10921;53.614;9.882;2022-08-25T12:45:30;101593.06;;;35.14;35.40
21520;BME280;10921;53.614;9.882;2022-08-25T12:50:59;101592.28;;;35.09;36.22
21520;BME280;10921;53.614;9.882;2022-08-25T12:59:02;101582.66;;;34.96;35.31
21520;BME280;10921;53.614;9.882;2022-08-25T13:07:36;101587.19;;;34.82;34.90
21520;BME280;10921;53.614;9.882;2022-08-25T13:13:00;101570.63;;;34.62;35.12
21520;BME280;10921;53.614;9.882;2022-08-25T13:16:08;101572.91;;;34.49;35.72
21520;BME280;10921;53.614;9.882;2022-08-25T13:21:16;101559.34;;;34.38;35.95
21520;BME280;10921;53.614;9.882;2022-08-25T13:23:49;101554.13;;;34.26;35.72
21520;BME280;10921;53.614;9.882;2022-08-25T13:26:25;101550.28;;;34.22;35.57
21520;BME280;10921;53.614;9.882;2022-08-25T13:29:19;101544.75;;;34.17;35.83
21520;BME280;10921;53.614;9.882;2022-08-25T13:31:57;101538.09;;;34.13;35.94
21520;BME280;10921;53.614;9.882;2022-08-25T13:34:28;101529.28;;;34.06;35.39
21520;BME280;10921;53.614;9.882;2022-08-25T13:37:05;101530.06;;;34.16;36.69
21520;BME280;10921;53.614;9.882;2022-08-25T13:40:25;101532.56;;;34.18;35.84
21520;BME280;10921;53.614;9.882;2022-08-25T13:42:57;101519.00;;;34.16;35.99
21520;BME280;10921;53.614;9.882;2022-08-25T13:45:29;101526.97;;;34.23;36.31
21520;BME280;10921;53.614;9.882;2022-08-25T13:47:57;101517.31;;;34.20;34.60
21520;BME280;10921;53.614;9.882;2022-08-25T13:53:23;101517.22;;;34.46;35.36
21520;BME280;10921;53.614;9.882;2022-08-25T13:55:53;101502.28;;;34.42;35.35
21520;BME280;10921;53.614;9.882;2022-08-25T13:58:28;101509.31;;;34.68;34.87
21520;BME280;10921;53.614;9.882;2022-08-25T14:01:21;101513.94;;;34.88;35.05
21520;BME280;10921;53.614;9.882;2022-08-25T14:04:20;101517.41;;;35.09;33.40
21520;BME280;10921;53.614;9.882;2022-08-25T14:06:48;101505.72;;;35.12;33.55
21520;BME280;10921;53.614;9.882;2022-08-25T14:09:17;101491.31;;;35.10;33.23
21520;BME280;10921;53.614;9.882;2022-08-25T14:11:57;101509.91;;;35.09;33.78
21520;BME280;10921;53.614;9.882;2022-08-25T14:16:56;101505.41;;;34.79;33.99
21520;BME280;10921;53.614;9.882;2022-08-25T14:19:24;101502.97;;;34.68;34.05
21520;BME280;10921;53.614;9.882;2022-08-25T14:21:51;101498.00;;;34.65;33.88
21520;BME280;10921;53.614;9.882;2022-08-25T14:24:22;101485.00;;;34.60;33.84
21520;BME280;10921;53.614;9.882;2022-08-25T14:26:49;101454.13;;;34.33;34.13
21520;BME280;10921;53.614;9.882;2022-08-25T14:29:20;101486.47;;;34.47;34.11
21520;BME280;10921;53.614;9.882;2022-08-25T14:31:47;101480.97;;;34.37;35.25
21520;BME280;10921;53.614;9.882;2022-08-25T14:34:20;101478.25;;;34.22;34.73
21520;BME280;10921;53.614;9.882;2022-08-25T14:36:49;101467.81;;;34.04;34.51
21520;BME280;10921;53.614;9.882;2022-08-25T14:39:16;101472.28;;;33.90;36.05
21520;BME280;10921;53.614;9.882;2022-08-25T14:41:43;101468.16;;;33.72;36.37
21520;BME280;10921;53.614;9.882;2022-08-25T14:44:18;101469.03;;;33.57;35.74
21520;BME280;10921;53.614;9.882;2022-08-25T14:46:51;101455.19;;;33.47;35.29
21520;BME280;10921;53.614;9.882;2022-08-25T14:49:29;101458.28;;;33.35;35.88
21520;BME280;10921;53.614;9.882;2022-08-25T14:52:21;101458.00;;;33.06;36.50
21520;BME280;10921;53.614;9.882;2022-08-25T14:54:49;101452.75;;;32.84;36.44
21520;BME280;10921;53.614;9.882;2022-08-25T14:57:16;101450.75;;;32.65;37.30
21520;BME280;10921;53.614;9.882;2022-08-25T14:59:42;101450.19;;;32.53;37.34
21520;BME280;10921;53.614;9.882;2022-08-25T15:02:11;101436.34;;;32.37;38.00